createdAt,value
2018-07-06T00:02:50.177Z,18.77
2018-07-06T00:12:46.932Z,18.74
2018-07-06T00:22:42.890Z,18.87
2018-07-06T00:32:41.248Z,18.92
2018-07-06T00:42:40.019Z,19.05
2018-07-06T00:52:34.861Z,18.98
2018-07-06T01:02:33.259Z,19.06
2018-07-06T01:12:31.778Z,19.36
2018-07-06T01:22:28.972Z,19.38
2018-07-06T01:32:26.269Z,19.35
2018-07-06T01:42:24.750Z,19.24
2018-07-06T01:52:20.702Z,19.42
2018-07-06T02:02:16.013Z,19.61
2018-07-06T02:12:13.009Z,19.68
2018-07-06T02:22:10.080Z,19.91
2018-07-06T02:32:08.795Z,19.68
2018-07-06T02:42:06.278Z,20.06
2018-07-06T02:52:00.579Z,20.06
2018-07-06T03:01:59.731Z,20.03
2018-07-06T03:11:56.595Z,19.95
2018-07-06T03:21:53.675Z,19.71
2018-07-06T03:31:51.368Z,19.65
2018-07-06T03:41:45.910Z,19.91
2018-07-06T03:51:43.667Z,19.76
2018-07-06T04:01:42.414Z,20.34
2018-07-06T04:11:39.013Z,19.65
2018-07-06T04:21:35.089Z,19.97
2018-07-06T04:31:30.906Z,19.94
2018-07-06T04:41:27.651Z,19.25
2018-07-06T04:51:23.960Z,19.21
2018-07-06T05:01:20.920Z,19.21
2018-07-06T05:11:02.555Z,19.17
2018-07-06T05:21:00.900Z,19.13
2018-07-06T05:30:58.524Z,19.11
2018-07-06T05:40:52.050Z,19.05
2018-07-06T05:50:51.034Z,18.92
2018-07-06T06:00:45.021Z,18.97
2018-07-06T06:10:39.628Z,18.83
2018-07-06T06:20:36.177Z,18.68
2018-07-06T06:30:32.496Z,18.61
2018-07-06T06:40:29.640Z,18.44
2018-07-06T06:50:28.094Z,18.27
2018-07-06T07:00:27.665Z,18.03
2018-07-06T07:10:19.117Z,17.96
2018-07-06T07:20:15.170Z,18.09
2018-07-06T07:30:14.159Z,18.02
2018-07-06T07:40:10.858Z,17.95
2018-07-06T07:50:07.984Z,18.11
2018-07-06T08:00:05.240Z,18.03
2018-07-06T08:10:00.890Z,18.00
2018-07-06T08:19:56.755Z,18.09
2018-07-06T08:29:55.796Z,18.19
2018-07-06T08:39:52.555Z,18.25
2018-07-06T08:49:46.688Z,18.28
2018-07-06T08:59:45.542Z,18.34
2018-07-06T09:09:42.460Z,18.28
2018-07-06T09:19:36.961Z,18.06
2018-07-06T09:29:31.039Z,18.31
2018-07-06T09:39:29.856Z,18.31
2018-07-06T09:49:28.514Z,18.43
2018-07-06T09:59:24.727Z,18.25
2018-07-06T10:09:21.233Z,18.31
2018-07-06T10:19:18.103Z,18.21
2018-07-06T10:29:17.309Z,18.42
2018-07-06T10:39:14.855Z,18.57
2018-07-06T10:49:08.687Z,18.49
2018-07-06T10:59:06.471Z,18.64
2018-07-06T11:09:03.878Z,18.84
2018-07-06T11:19:02.470Z,19.32
2018-07-06T11:28:57.777Z,19.48
2018-07-06T11:38:52.838Z,19.83
2018-07-06T11:48:51.467Z,19.58
2018-07-06T11:58:50.345Z,19.68
2018-07-06T12:08:47.974Z,19.75
2018-07-06T12:18:42.792Z,19.95
2018-07-06T12:28:37.561Z,19.91
2018-07-06T12:38:35.234Z,20.06
2018-07-06T12:48:28.866Z,20.00
2018-07-06T12:58:25.373Z,20.31
2018-07-06T13:08:23.803Z,20.61
2018-07-06T13:18:21.858Z,21.05
2018-07-06T13:28:20.470Z,21.42
2018-07-06T13:38:20.301Z,21.89
2018-07-06T13:48:15.970Z,22.81
2018-07-06T13:58:08.543Z,22.81
2018-07-06T14:08:08.104Z,23.79
2018-07-06T14:18:09.088Z,23.79
2018-07-06T14:28:01.573Z,24.32
2018-07-06T14:37:57.091Z,23.26
2018-07-06T14:47:51.190Z,23.45
2018-07-06T14:57:45.644Z,22.99
2018-07-06T15:07:41.361Z,23.04
2018-07-06T15:17:39.002Z,22.74
2018-07-06T15:27:31.054Z,22.28
2018-07-06T15:37:23.203Z,22.00
2018-07-06T15:47:20.394Z,22.05
2018-07-06T15:57:15.740Z,22.05
2018-07-06T16:07:09.737Z,22.04
2018-07-06T16:17:07.274Z,22.05
2018-07-06T16:27:03.265Z,22.19
2018-07-06T16:37:00.400Z,22.19
2018-07-06T16:46:56.690Z,22.08
2018-07-06T16:56:49.319Z,21.98
2018-07-06T17:06:48.084Z,21.76
2018-07-06T17:16:42.785Z,21.76
2018-07-06T17:26:41.602Z,21.56
2018-07-06T17:36:36.213Z,21.54
2018-07-06T17:46:30.920Z,21.45
2018-07-06T17:56:28.379Z,21.33
2018-07-06T18:06:24.614Z,21.24
2018-07-06T18:16:20.311Z,20.98
2018-07-06T18:26:13.353Z,21.01
2018-07-06T18:36:06.621Z,20.80
2018-07-06T18:46:00.351Z,20.64
2018-07-06T18:55:53.361Z,20.54
2018-07-06T19:05:49.742Z,20.50
2018-07-06T19:15:47.004Z,20.38
2018-07-06T19:25:42.736Z,20.31
2018-07-06T19:35:39.886Z,20.27
2018-07-06T19:45:35.471Z,20.06
2018-07-06T19:55:29.062Z,19.97
2018-07-06T20:05:26.995Z,20.03
2018-07-06T20:15:23.924Z,20.05
2018-07-06T20:25:20.499Z,20.19
2018-07-06T20:35:14.839Z,20.27
2018-07-06T20:45:06.746Z,20.27
2018-07-06T20:54:57.792Z,20.28
2018-07-06T21:04:51.194Z,20.33
2018-07-06T21:14:45.567Z,19.80
2018-07-06T21:24:44.163Z,19.97
2018-07-06T21:34:41.913Z,20.27
2018-07-06T21:44:37.186Z,20.28
2018-07-06T21:54:22.680Z,20.10
2018-07-06T22:04:19.459Z,20.38
2018-07-06T22:14:18.415Z,20.24
2018-07-06T22:24:16.082Z,20.23
2018-07-06T22:34:12.089Z,20.19
2018-07-06T22:44:06.937Z,20.50
2018-07-06T22:54:04.901Z,20.27
2018-07-06T23:04:01.954Z,19.78
2018-07-06T23:13:59.795Z,19.45
2018-07-06T23:23:55.869Z,19.23
2018-07-06T23:33:50.925Z,19.13
2018-07-06T23:43:49.325Z,18.87
2018-07-06T23:53:47.606Z,18.87
